createdAt,value
2016-12-01T14:28:59.334Z,11.81
2016-12-01T14:30:10.076Z,11.37
2016-12-01T14:31:20.825Z,11
2016-12-01T14:32:31.560Z,10.65
2016-12-01T14:33:42.284Z,10.25
2016-12-01T14:34:53.027Z,10.13
2016-12-01T14:36:04.085Z,10.03
2016-12-01T14:37:14.860Z,9.76
2016-12-01T14:38:25.640Z,9.58
2016-12-01T14:39:36.369Z,9.31
2016-12-01T14:40:47.107Z,9.22
2016-12-01T14:41:57.853Z,9.08
2016-12-01T14:43:08.606Z,8.93
2016-12-01T14:44:19.349Z,8.86
2016-12-01T14:45:30.069Z,8.71
2016-12-01T14:46:40.794Z,8.59
2016-12-01T14:47:51.522Z,8.52
2016-12-01T14:49:02.591Z,8.42
2016-12-01T14:50:13.324Z,8.26
2016-12-01T14:51:24.045Z,8.24
2016-12-01T14:52:34.777Z,8.08
2016-12-01T14:53:45.524Z,8.05
2016-12-01T14:54:56.258Z,8.01
2016-12-01T14:56:07.020Z,7.93
2016-12-01T14:57:17.754Z,7.88
2016-12-01T14:58:28.482Z,7.87
2016-12-01T14:59:39.204Z,7.85
2016-12-01T15:00:49.938Z,7.77
2016-12-01T15:02:00.692Z,7.75
2016-12-01T15:03:11.410Z,7.7
2016-12-01T15:04:22.135Z,7.7
2016-12-01T15:05:32.873Z,7.56
2016-12-01T15:06:43.623Z,7.69
2016-12-01T15:07:54.347Z,7.7
2016-12-01T15:09:05.090Z,7.53
2016-12-01T15:10:15.832Z,7.58
2016-12-01T15:11:26.578Z,7.51
2016-12-01T15:12:37.312Z,7.53
2016-12-01T15:13:48.056Z,7.51
2016-12-01T15:14:58.828Z,7.51
2016-12-01T15:16:09.577Z,7.43
2016-12-01T15:17:20.340Z,7.41
2016-12-01T15:18:31.083Z,7.41
2016-12-01T15:19:41.825Z,7.41
2016-12-01T15:20:52.558Z,7.32
2016-12-01T15:22:03.321Z,7.29
2016-12-01T15:23:14.055Z,7.41
2016-12-01T15:24:24.816Z,7.4
2016-12-01T15:25:35.538Z,7.31
2016-12-01T15:26:46.259Z,7.31
2016-12-01T15:27:56.979Z,7.28
2016-12-01T15:29:07.703Z,7.26
2016-12-01T15:30:18.400Z,7.29
2016-12-01T15:31:29.464Z,7.29
2016-12-01T15:32:40.181Z,7.23
2016-12-01T15:33:50.934Z,7.28
2016-12-01T15:35:01.680Z,7.25
2016-12-01T15:36:12.430Z,7.22
2016-12-01T15:37:23.197Z,7.25
2016-12-01T15:38:33.941Z,7.28
2016-12-01T15:39:44.719Z,7.23
2016-12-01T15:40:55.465Z,7.26
2016-12-01T15:42:06.210Z,7.28
2016-12-01T15:43:17.595Z,7.29
2016-12-01T15:44:28.318Z,7.26
2016-12-01T15:45:39.339Z,7.28
2016-12-01T15:46:50.058Z,7.26
2016-12-01T15:48:00.784Z,7.28
2016-12-01T15:49:11.505Z,7.25
2016-12-01T15:50:22.271Z,7.26
2016-12-01T15:51:33.017Z,7.28
2016-12-01T15:52:43.739Z,7.26
2016-12-01T15:53:54.496Z,7.29
2016-12-01T15:55:05.230Z,7.32
2016-12-01T15:56:15.959Z,7.23
2016-12-01T15:57:26.685Z,7.33
2016-12-01T15:58:37.422Z,7.4
2016-12-01T15:59:48.152Z,7.37
2016-12-01T16:00:58.885Z,7.39
2016-12-01T16:02:09.619Z,7.46
2016-12-01T16:03:20.365Z,7.37
2016-12-01T16:04:31.123Z,7.32
2016-12-01T16:05:41.878Z,7.46
2016-12-01T16:06:52.595Z,7.36
2016-12-01T16:08:03.323Z,7.37
2016-12-01T16:09:14.090Z,7.37
2016-12-01T16:10:24.793Z,7.32
2016-12-01T16:11:35.557Z,7.4
2016-12-01T16:12:46.300Z,7.37
2016-12-01T16:13:57.042Z,7.43
2016-12-01T16:15:07.767Z,7.36
2016-12-01T16:16:18.483Z,7.41
2016-12-01T16:17:29.220Z,7.44
2016-12-01T16:18:40.255Z,7.4
2016-12-01T16:19:51.008Z,7.37
2016-12-01T16:21:01.756Z,7.41
2016-12-01T16:22:12.498Z,7.46
2016-12-01T16:23:23.224Z,7.36
2016-12-01T16:24:33.967Z,7.43
2016-12-01T16:25:44.703Z,7.41
2016-12-01T16:26:55.423Z,7.41
2016-12-01T16:28:06.157Z,7.43
2016-12-01T16:29:16.890Z,7.43
2016-12-01T16:30:27.665Z,7.39
2016-12-01T16:31:38.393Z,7.33
2016-12-01T16:32:49.112Z,7.36
2016-12-01T16:33:59.884Z,7.33
2016-12-01T16:35:10.595Z,7.33
2016-12-01T16:36:21.329Z,7.26
2016-12-01T16:37:32.351Z,7.32
2016-12-01T16:38:43.087Z,7.29
2016-12-01T16:39:53.809Z,7.26
2016-12-01T16:41:04.588Z,7.31
2016-12-01T16:42:15.351Z,7.31
2016-12-01T16:43:26.056Z,7.29
2016-12-01T16:44:36.796Z,7.28
2016-12-01T16:45:47.524Z,7.25
2016-12-01T16:46:58.263Z,7.25
2016-12-01T16:48:09.001Z,7.23
2016-12-01T16:49:19.726Z,7.25
2016-12-01T16:50:30.480Z,7.22
2016-12-01T16:51:41.253Z,7.25
2016-12-01T16:52:51.998Z,7.26
2016-12-01T16:54:02.756Z,7.28
2016-12-01T16:55:13.491Z,7.25
2016-12-01T16:56:24.205Z,7.29
2016-12-01T16:57:34.921Z,7.31
2016-12-01T16:58:45.652Z,7.25
2016-12-01T16:59:56.399Z,7.23
2016-12-01T17:01:07.143Z,7.25
2016-12-01T17:02:17.863Z,7.31
2016-12-01T17:03:28.627Z,7.28
2016-12-01T17:04:39.377Z,7.23
2016-12-01T17:05:50.098Z,7.23
2016-12-01T17:07:00.837Z,7.19
2016-12-01T17:08:11.583Z,7.28
2016-12-01T17:09:22.339Z,7.22
2016-12-01T17:10:33.084Z,7.22
2016-12-01T17:11:43.833Z,7.25
2016-12-01T17:12:54.591Z,7.23
2016-12-01T17:14:05.619Z,7.18
2016-12-01T17:15:16.342Z,7.26
2016-12-01T17:16:27.078Z,7.15
2016-12-01T17:17:37.812Z,7.14
2016-12-01T17:18:48.520Z,7.22
2016-12-01T17:19:59.274Z,7.18
2016-12-01T17:21:10.019Z,7.21
2016-12-01T17:22:20.744Z,7.22
2016-12-01T17:23:31.483Z,7.13
2016-12-01T17:24:42.262Z,7.13
2016-12-01T17:25:52.999Z,7.25
2016-12-01T17:27:03.716Z,7.14
2016-12-01T17:28:14.445Z,7.22
2016-12-01T17:29:25.159Z,7.26
2016-12-01T17:30:35.863Z,7.15
2016-12-01T17:31:46.584Z,7.14
2016-12-01T17:32:57.305Z,7.19
2016-12-01T17:34:08.049Z,7.22
2016-12-01T17:35:18.812Z,7.19
2016-12-01T17:36:29.517Z,7.22
2016-12-01T17:37:40.237Z,7.28
2016-12-01T17:38:50.987Z,7.23
2016-12-01T17:40:01.728Z,7.26
2016-12-01T17:41:12.478Z,7.26
2016-12-01T17:42:23.202Z,7.23
2016-12-01T17:43:33.908Z,7.22
2016-12-01T17:44:44.659Z,7.26
2016-12-01T17:45:55.390Z,7.26
2016-12-01T17:47:06.134Z,7.23
2016-12-01T17:48:16.892Z,7.26
2016-12-01T17:49:27.629Z,7.25
2016-12-01T17:50:38.366Z,7.26
2016-12-01T17:51:49.087Z,7.23
2016-12-01T17:52:59.838Z,7.31
2016-12-01T17:54:10.579Z,7.28
2016-12-01T17:55:21.297Z,7.25
2016-12-01T17:56:32.027Z,7.31
2016-12-01T17:57:42.764Z,7.28
2016-12-01T17:58:53.510Z,7.4
2016-12-01T18:00:04.551Z,7.36
2016-12-01T18:01:15.282Z,7.32
2016-12-01T18:02:26.002Z,7.43
2016-12-01T18:03:36.718Z,7.44
2016-12-01T18:04:47.468Z,7.36
2016-12-01T18:05:58.214Z,7.36
2016-12-01T18:07:08.956Z,7.43
2016-12-01T18:08:19.685Z,7.36
2016-12-01T18:09:30.443Z,7.33
2016-12-01T18:10:41.189Z,7.43
2016-12-01T18:11:51.911Z,7.4
2016-12-01T18:13:02.636Z,7.47
2016-12-01T18:14:13.385Z,7.41
2016-12-01T18:15:24.114Z,7.43
2016-12-01T18:16:34.849Z,7.47
2016-12-01T18:17:45.590Z,7.47
2016-12-01T18:18:56.371Z,7.53
2016-12-01T18:20:07.091Z,7.47
2016-12-01T18:21:18.140Z,7.53
2016-12-01T18:22:28.857Z,7.53
2016-12-01T18:23:39.594Z,7.55
2016-12-01T18:24:50.344Z,7.58
2016-12-01T18:26:01.094Z,7.53
2016-12-01T18:27:11.807Z,7.53
2016-12-01T18:28:22.553Z,7.58
2016-12-01T18:29:33.274Z,7.53
2016-12-01T18:30:44.032Z,7.51
2016-12-01T18:31:54.770Z,7.51
2016-12-01T18:33:05.562Z,7.53
2016-12-01T18:34:16.294Z,7.69
2016-12-01T18:35:27.038Z,7.67
2016-12-01T18:36:37.774Z,7.67
2016-12-01T18:37:48.480Z,7.62
2016-12-01T18:38:59.229Z,7.55
2016-12-01T18:40:09.991Z,7.58
2016-12-01T18:41:20.711Z,7.67
2016-12-01T18:42:31.453Z,7.72
2016-12-01T18:43:42.198Z,7.58
2016-12-01T18:44:52.933Z,7.47
2016-12-01T18:46:03.678Z,7.61
2016-12-01T18:47:14.440Z,7.55
2016-12-01T18:48:25.220Z,7.51
2016-12-01T18:49:35.935Z,7.55
2016-12-01T18:50:46.673Z,7.66
2016-12-01T18:51:57.427Z,7.55
2016-12-01T18:53:08.148Z,7.59
2016-12-01T18:54:18.875Z,7.59
2016-12-01T18:55:29.609Z,7.59
2016-12-01T18:56:40.357Z,7.51
2016-12-01T18:57:51.106Z,7.62
2016-12-01T18:59:01.861Z,7.58
2016-12-01T19:00:12.603Z,7.62
2016-12-01T19:01:23.348Z,7.59
2016-12-01T19:02:34.111Z,7.51
2016-12-01T19:03:44.857Z,7.64
2016-12-01T19:04:55.599Z,7.64
2016-12-01T19:06:06.331Z,7.47
2016-12-01T19:07:17.076Z,7.67
2016-12-01T19:08:27.818Z,7.58
2016-12-01T19:09:38.564Z,7.62
2016-12-01T19:10:49.314Z,7.59
2016-12-01T19:12:00.024Z,7.53
2016-12-01T19:13:10.737Z,7.55
2016-12-01T19:14:21.490Z,7.56
2016-12-01T19:15:32.243Z,7.5
2016-12-01T19:16:42.964Z,7.5
2016-12-01T19:17:53.702Z,7.55
2016-12-01T19:19:04.439Z,7.5
2016-12-01T19:20:15.169Z,7.5
2016-12-01T19:21:25.873Z,7.5
2016-12-01T19:22:36.622Z,7.51
2016-12-01T19:23:47.381Z,7.55
2016-12-01T19:24:58.160Z,7.51
2016-12-01T19:26:09.186Z,7.48
2016-12-01T19:27:19.956Z,7.55
2016-12-01T19:28:30.690Z,7.55
2016-12-01T19:29:41.441Z,7.56
2016-12-01T19:30:52.145Z,7.55
2016-12-01T19:32:02.903Z,7.59
2016-12-01T19:33:13.661Z,7.53
2016-12-01T19:34:24.400Z,7.55
2016-12-01T19:35:35.130Z,7.48
2016-12-01T19:36:48.654Z,7.5
2016-12-01T19:37:59.393Z,7.51
2016-12-01T19:39:10.116Z,7.5
2016-12-01T19:40:20.850Z,7.55
2016-12-01T19:41:31.601Z,7.46
2016-12-01T19:42:42.342Z,7.48
2016-12-01T19:43:53.046Z,7.41
2016-12-01T19:45:03.775Z,7.46
2016-12-01T19:46:14.510Z,7.55
2016-12-01T19:47:25.256Z,7.53
2016-12-01T19:48:35.987Z,7.53
2016-12-01T19:49:46.751Z,7.56
2016-12-01T19:50:57.490Z,7.59
2016-12-01T19:52:08.224Z,7.51
2016-12-01T19:53:18.993Z,7.56
2016-12-01T19:54:29.767Z,7.5
2016-12-01T19:55:40.537Z,7.53
2016-12-01T19:56:51.303Z,7.55
2016-12-01T19:58:02.032Z,7.69
2016-12-01T19:59:12.788Z,7.64
2016-12-01T20:00:23.538Z,7.62
2016-12-01T20:01:34.335Z,7.56
2016-12-01T20:02:45.089Z,7.64
2016-12-01T20:03:55.823Z,7.66
2016-12-01T20:05:06.607Z,7.62
2016-12-01T20:06:17.351Z,7.75
2016-12-01T20:07:28.146Z,7.67
2016-12-01T20:08:38.933Z,7.67
2016-12-01T20:09:49.658Z,7.72
2016-12-01T20:11:00.386Z,7.7
2016-12-01T20:12:11.132Z,7.7
2016-12-01T20:13:21.885Z,7.83
2016-12-01T20:14:32.638Z,7.8
2016-12-01T20:15:43.394Z,7.85
2016-12-01T20:16:54.142Z,7.9
2016-12-01T20:18:04.927Z,7.9
2016-12-01T20:19:15.680Z,7.9
2016-12-01T20:20:26.420Z,7.88
2016-12-01T20:21:37.197Z,7.93
2016-12-01T20:22:47.943Z,7.88
2016-12-01T20:23:58.689Z,7.87
2016-12-01T20:25:09.467Z,7.93
2016-12-01T20:26:20.215Z,7.96
2016-12-01T20:27:30.954Z,7.93
2016-12-01T20:28:42.000Z,8.02
2016-12-01T20:29:52.701Z,7.95
2016-12-01T20:31:03.492Z,7.93
2016-12-01T20:32:14.232Z,8.01
2016-12-01T20:33:24.966Z,8.02
2016-12-01T20:34:35.698Z,7.98
2016-12-01T20:35:46.457Z,7.93
2016-12-01T20:36:57.191Z,7.88
2016-12-01T20:38:07.942Z,7.99
2016-12-01T20:39:18.691Z,8.02
2016-12-01T20:40:29.437Z,7.99
2016-12-01T20:41:40.139Z,7.96
2016-12-01T20:42:50.877Z,8.03
2016-12-01T20:44:01.623Z,8.01
2016-12-01T20:45:12.794Z,8.02
2016-12-01T20:46:23.522Z,8.03
2016-12-01T20:47:34.261Z,8.02
2016-12-01T20:48:44.985Z,8.02
2016-12-01T20:49:55.710Z,8.02
2016-12-01T20:51:06.499Z,8.03
2016-12-01T20:52:17.249Z,8.03
2016-12-01T20:53:28.087Z,8.01
2016-12-01T20:54:38.809Z,7.99
2016-12-01T20:55:49.537Z,8.03
2016-12-01T20:57:00.275Z,8.01
2016-12-01T20:58:11.004Z,7.98
2016-12-01T20:59:21.751Z,8.02
2016-12-01T21:00:32.801Z,8.01
2016-12-01T21:01:43.541Z,7.99
2016-12-01T21:02:54.307Z,7.96
2016-12-01T21:04:05.067Z,7.9
2016-12-01T21:05:15.861Z,7.98
2016-12-01T21:06:26.577Z,7.91
2016-12-01T21:07:37.299Z,7.98
2016-12-01T21:08:48.037Z,7.95
2016-12-01T21:09:58.796Z,7.91
2016-12-01T21:11:09.554Z,7.95
2016-12-01T21:12:20.313Z,7.93
2016-12-01T21:13:31.051Z,7.93
2016-12-01T21:14:41.798Z,7.81
2016-12-01T21:15:52.548Z,7.84
2016-12-01T21:17:03.318Z,7.77
2016-12-01T21:18:14.060Z,7.85
2016-12-01T21:19:24.815Z,7.81
2016-12-01T21:20:35.553Z,7.77
2016-12-01T21:21:46.269Z,7.8
2016-12-01T21:22:57.023Z,7.75
2016-12-01T21:24:07.768Z,7.59
2016-12-01T21:25:18.493Z,7.67
2016-12-01T21:26:29.216Z,7.62
2016-12-01T21:27:39.938Z,7.58
2016-12-01T21:28:50.704Z,7.74
2016-12-01T21:30:01.429Z,7.56
2016-12-01T21:31:12.168Z,7.58
2016-12-01T21:32:23.220Z,7.59
2016-12-01T21:33:33.955Z,7.67
2016-12-01T21:34:44.705Z,7.61
2016-12-01T21:35:55.414Z,7.62
2016-12-01T21:37:06.429Z,7.62
2016-12-01T21:38:17.167Z,7.61
2016-12-01T21:39:27.896Z,7.56
2016-12-01T21:40:38.636Z,7.61
2016-12-01T21:41:49.387Z,7.61
2016-12-01T21:43:00.122Z,7.59
2016-12-01T21:44:10.850Z,7.61
2016-12-01T21:45:21.591Z,7.66
2016-12-01T21:46:32.332Z,7.69
2016-12-01T21:47:43.066Z,7.67
2016-12-01T21:48:53.812Z,7.69
2016-12-01T21:50:04.556Z,7.74
2016-12-01T21:51:15.303Z,7.74
2016-12-01T21:52:26.066Z,7.74
2016-12-01T21:53:36.789Z,7.77
2016-12-01T21:54:47.535Z,7.78
2016-12-01T21:55:58.239Z,7.77
2016-12-01T21:57:08.977Z,7.78
2016-12-01T21:58:19.714Z,7.78
2016-12-01T21:59:30.451Z,7.8
2016-12-01T22:00:41.205Z,7.88
2016-12-01T22:01:51.952Z,7.88
2016-12-01T22:03:02.656Z,7.87
2016-12-01T22:04:13.398Z,7.88
2016-12-01T22:05:24.164Z,7.81
2016-12-01T22:06:34.914Z,7.88
2016-12-01T22:07:45.638Z,7.93
2016-12-01T22:08:56.376Z,7.91
2016-12-01T22:10:07.086Z,7.98
2016-12-01T22:11:17.825Z,7.98
2016-12-01T22:12:28.548Z,7.96
2016-12-01T22:13:39.285Z,7.91
2016-12-01T22:14:50.018Z,7.98
2016-12-01T22:16:00.763Z,7.93
2016-12-01T22:17:11.504Z,7.95
2016-12-01T22:18:22.217Z,7.98
2016-12-01T22:19:32.968Z,8.01
2016-12-01T22:20:43.696Z,8.03
2016-12-01T22:21:54.434Z,8.01
2016-12-01T22:23:05.176Z,8.01
2016-12-01T22:24:15.921Z,8.06
2016-12-01T22:25:26.679Z,8.08
2016-12-01T22:26:37.463Z,8.05
2016-12-01T22:27:48.216Z,8.06
2016-12-01T22:28:58.937Z,8.09
2016-12-01T22:30:09.650Z,8.08
2016-12-01T22:31:20.380Z,8.06
2016-12-01T22:32:31.128Z,8.08
2016-12-01T22:33:41.867Z,8.09
2016-12-01T22:34:52.633Z,8.11
2016-12-01T22:36:03.355Z,8.08
2016-12-01T22:37:14.060Z,8.17
2016-12-01T22:38:24.800Z,8.11
2016-12-01T22:39:35.524Z,8.26
2016-12-01T22:40:46.221Z,8.23
2016-12-01T22:41:56.946Z,8.18
2016-12-01T22:43:07.717Z,8.16
2016-12-01T22:44:18.433Z,8.18
2016-12-01T22:45:29.160Z,8.2
2016-12-01T22:46:39.900Z,8.21
2016-12-01T22:47:50.643Z,8.23
2016-12-01T22:49:01.361Z,8.21
2016-12-01T22:50:12.106Z,8.11
2016-12-01T22:51:22.853Z,8.26
2016-12-01T22:52:33.603Z,8.28
2016-12-01T22:53:44.345Z,8.26
2016-12-01T22:54:55.402Z,8.24
2016-12-01T22:56:06.123Z,8.27
2016-12-01T22:57:16.862Z,8.34
2016-12-01T22:58:27.579Z,8.27
2016-12-01T22:59:38.326Z,8.27
2016-12-01T23:00:49.071Z,8.27
2016-12-01T23:01:59.800Z,8.26
2016-12-01T23:03:10.525Z,8.31
2016-12-01T23:04:21.272Z,8.27
2016-12-01T23:05:32.010Z,8.24
2016-12-01T23:06:42.757Z,8.27
2016-12-01T23:07:53.502Z,8.27
2016-12-01T23:09:04.209Z,8.27
2016-12-01T23:10:14.965Z,8.28
2016-12-01T23:11:25.719Z,8.32
2016-12-01T23:12:36.462Z,8.32
2016-12-01T23:13:47.204Z,8.32
2016-12-01T23:14:57.933Z,8.38
2016-12-01T23:16:08.655Z,8.39
2016-12-01T23:17:19.403Z,8.36
2016-12-01T23:18:30.143Z,8.39
2016-12-01T23:19:40.873Z,8.44
2016-12-01T23:20:51.635Z,8.35
2016-12-01T23:22:02.684Z,8.39
2016-12-01T23:23:13.406Z,8.39
2016-12-01T23:24:24.149Z,8.5
2016-12-01T23:25:34.896Z,8.41
2016-12-01T23:26:45.627Z,8.49
2016-12-01T23:27:56.372Z,8.52
2016-12-01T23:29:07.129Z,8.52
2016-12-01T23:30:17.885Z,8.52
2016-12-01T23:31:28.634Z,8.46
2016-12-01T23:32:39.373Z,8.57
2016-12-01T23:33:50.089Z,8.49
2016-12-01T23:35:00.823Z,8.5
2016-12-01T23:36:11.566Z,8.5
2016-12-01T23:37:22.303Z,8.44
2016-12-01T23:38:33.011Z,8.45
2016-12-01T23:39:43.751Z,8.46
2016-12-01T23:40:54.526Z,8.52
2016-12-01T23:42:05.296Z,8.41
2016-12-01T23:43:16.021Z,8.46
2016-12-01T23:44:26.760Z,8.44
2016-12-01T23:45:37.511Z,8.49
2016-12-01T23:46:48.255Z,8.41
2016-12-01T23:47:58.999Z,8.35
2016-12-01T23:49:09.741Z,8.35
2016-12-01T23:50:20.466Z,8.41
2016-12-01T23:51:31.213Z,8.36
2016-12-01T23:52:41.954Z,8.41
2016-12-01T23:53:52.687Z,8.44
2016-12-01T23:55:03.408Z,8.41
2016-12-01T23:56:14.144Z,8.38
2016-12-01T23:57:24.889Z,8.39
2016-12-01T23:58:35.646Z,8.36
2016-12-01T23:59:46.406Z,8.39
